sensor_id;sensor_type;location;lat;lon;timestamp;P1;durP1;ratioP1;P2;durP2;ratioP2
70780;SDS011;59514;48.810;2.134;2022-09-03T00:00:08;3.20;;;2.90;;
70780;SDS011;59514;48.810;2.134;2022-09-03T00:02:46;3.38;;;3.10;;
70780;SDS011;59514;48.810;2.134;2022-09-03T00:05:37;3.38;;;3.08;;
70780;SDS011;59514;48.810;2.134;2022-09-03T00:08:09;3.70;;;3.40;;
70780;SDS011;59514;48.810;2.134;2022-09-03T00:13:11;3.78;;;3.22;;
70780;SDS011;59514;48.810;2.134;2022-09-03T00:15:40;3.63;;;3.33;;
70780;SDS011;59514;48.810;2.134;2022-09-03T00:18:26;3.25;;;2.95;;
70780;SDS011;59514;48.810;2.134;2022-09-03T00:21:00;3.33;;;3.03;;
70780;SDS011;59514;48.810;2.134;2022-09-03T00:23:36;3.45;;;3.00;;
70780;SDS011;59514;48.810;2.134;2022-09-03T00:28:37;3.22;;;2.92;;
70780;SDS011;59514;48.810;2.134;2022-09-03T00:31:16;3.28;;;3.00;;
70780;SDS011;59514;48.810;2.134;2022-09-03T00:33:43;3.45;;;2.80;;
70780;SDS011;59514;48.810;2.134;2022-09-03T00:36:15;3.45;;;3.15;;
70780;SDS011;59514;48.810;2.134;2022-09-03T00:38:49;3.10;;;2.80;;
70780;SDS011;59514;48.810;2.134;2022-09-03T00:46:23;3.47;;;2.97;;
70780;SDS011;59514;48.810;2.134;2022-09-03T00:52:11;3.97;;;3.13;;
70780;SDS011;59514;48.810;2.134;2022-09-03T01:07:49;3.22;;;3.00;;
70780;SDS011;59514;48.810;2.134;2022-09-03T01:21:04;3.60;;;3.30;;
70780;SDS011;59514;48.810;2.134;2022-09-03T01:26:28;3.20;;;2.97;;
70780;SDS011;59514;48.810;2.134;2022-09-03T01:29:12;3.67;;;3.17;;
70780;SDS011;59514;48.810;2.134;2022-09-03T01:34:37;3.67;;;3.38;;
70780;SDS011;59514;48.810;2.134;2022-09-03T01:40:03;3.72;;;3.35;;
70780;SDS011;59514;48.810;2.134;2022-09-03T01:45:45;3.83;;;3.53;;
70780;SDS011;59514;48.810;2.134;2022-09-03T01:48:20;3.72;;;3.42;;
70780;SDS011;59514;48.810;2.134;2022-09-03T01:59:29;4.28;;;3.60;;
70780;SDS011;59514;48.810;2.134;2022-09-03T02:04:42;3.35;;;3.10;;
70780;SDS011;59514;48.810;2.134;2022-09-03T02:07:41;4.18;;;3.55;;
70780;SDS011;59514;48.810;2.134;2022-09-03T02:10:21;3.38;;;3.08;;
70780;SDS011;59514;48.810;2.134;2022-09-03T02:13:51;3.67;;;3.37;;
70780;SDS011;59514;48.810;2.134;2022-09-03T02:16:02;3.92;;;3.63;;
70780;SDS011;59514;48.810;2.134;2022-09-03T02:18:57;4.15;;;3.85;;
70780;SDS011;59514;48.810;2.134;2022-09-03T02:21:26;4.43;;;4.03;;
70780;SDS011;59514;48.810;2.134;2022-09-03T02:23:58;4.35;;;3.97;;
70780;SDS011;59514;48.810;2.134;2022-09-03T02:26:24;4.30;;;3.90;;
70780;SDS011;59514;48.810;2.134;2022-09-03T02:28:50;4.35;;;3.95;;
70780;SDS011;59514;48.810;2.134;2022-09-03T02:31:17;4.28;;;3.97;;
70780;SDS011;59514;48.810;2.134;2022-09-03T02:33:43;4.28;;;3.97;;
70780;SDS011;59514;48.810;2.134;2022-09-03T02:36:11;4.60;;;4.20;;
70780;SDS011;59514;48.810;2.134;2022-09-03T02:38:42;4.50;;;4.10;;
70780;SDS011;59514;48.810;2.134;2022-09-03T02:41:09;4.75;;;4.32;;
70780;SDS011;59514;48.810;2.134;2022-09-03T02:43:48;5.20;;;4.70;;
70780;SDS011;59514;48.810;2.134;2022-09-03T02:46:17;4.80;;;4.40;;
70780;SDS011;59514;48.810;2.134;2022-09-03T02:48:51;4.85;;;4.45;;
70780;SDS011;59514;48.810;2.134;2022-09-03T02:51:17;5.10;;;4.70;;
70780;SDS011;59514;48.810;2.134;2022-09-03T02:53:43;5.22;;;4.72;;
70780;SDS011;59514;48.810;2.134;2022-09-03T02:56:09;5.32;;;4.78;;
70780;SDS011;59514;48.810;2.134;2022-09-03T02:58:34;6.80;;;4.90;;
70780;SDS011;59514;48.810;2.134;2022-09-03T03:01:00;4.55;;;4.18;;
70780;SDS011;59514;48.810;2.134;2022-09-03T03:03:25;5.25;;;4.85;;
70780;SDS011;59514;48.810;2.134;2022-09-03T03:05:51;4.90;;;4.50;;
70780;SDS011;59514;48.810;2.134;2022-09-03T03:08:23;5.20;;;4.60;;
70780;SDS011;59514;48.810;2.134;2022-09-03T03:10:52;5.10;;;4.60;;
70780;SDS011;59514;48.810;2.134;2022-09-03T03:13:20;5.72;;;5.10;;
70780;SDS011;59514;48.810;2.134;2022-09-03T03:15:46;5.47;;;4.97;;
70780;SDS011;59514;48.810;2.134;2022-09-03T03:18:12;5.13;;;4.72;;
70780;SDS011;59514;48.810;2.134;2022-09-03T03:20:39;5.45;;;4.95;;
70780;SDS011;59514;48.810;2.134;2022-09-03T03:23:05;6.07;;;5.30;;
70780;SDS011;59514;48.810;2.134;2022-09-03T03:25:32;5.20;;;4.80;;
70780;SDS011;59514;48.810;2.134;2022-09-03T03:27:58;5.65;;;5.15;;
70780;SDS011;59514;48.810;2.134;2022-09-03T03:30:24;5.13;;;4.72;;
70780;SDS011;59514;48.810;2.134;2022-09-03T03:32:51;5.60;;;5.20;;
70780;SDS011;59514;48.810;2.134;2022-09-03T03:35:17;4.75;;;4.35;;
70780;SDS011;59514;48.810;2.134;2022-09-03T03:37:42;5.22;;;4.72;;
70780;SDS011;59514;48.810;2.134;2022-09-03T03:40:08;5.68;;;5.18;;
70780;SDS011;59514;48.810;2.134;2022-09-03T03:42:33;5.68;;;5.13;;
70780;SDS011;59514;48.810;2.134;2022-09-03T03:44:59;5.07;;;4.68;;
70780;SDS011;59514;48.810;2.134;2022-09-03T03:47:26;5.47;;;4.97;;
70780;SDS011;59514;48.810;2.134;2022-09-03T03:49:52;5.32;;;4.93;;
70780;SDS011;59514;48.810;2.134;2022-09-03T03:52:17;5.13;;;4.82;;
70780;SDS011;59514;48.810;2.134;2022-09-03T03:54:43;5.93;;;5.15;;
70780;SDS011;59514;48.810;2.134;2022-09-03T03:57:08;6.78;;;5.60;;
70780;SDS011;59514;48.810;2.134;2022-09-03T03:59:33;5.65;;;5.15;;
70780;SDS011;59514;48.810;2.134;2022-09-03T04:01:59;6.07;;;5.43;;
70780;SDS011;59514;48.810;2.134;2022-09-03T04:04:24;6.22;;;5.65;;
70780;SDS011;59514;48.810;2.134;2022-09-03T04:06:49;6.10;;;5.57;;
70780;SDS011;59514;48.810;2.134;2022-09-03T04:09:15;6.95;;;6.15;;
70780;SDS011;59514;48.810;2.134;2022-09-03T04:11:40;6.80;;;6.20;;
70780;SDS011;59514;48.810;2.134;2022-09-03T04:14:05;6.60;;;6.00;;
70780;SDS011;59514;48.810;2.134;2022-09-03T04:16:31;6.95;;;6.32;;
70780;SDS011;59514;48.810;2.134;2022-09-03T04:18:56;6.63;;;6.07;;
70780;SDS011;59514;48.810;2.134;2022-09-03T04:21:26;6.85;;;6.35;;
70780;SDS011;59514;48.810;2.134;2022-09-03T04:23:53;6.93;;;6.43;;
70780;SDS011;59514;48.810;2.134;2022-09-03T04:26:20;6.20;;;5.70;;
70780;SDS011;59514;48.810;2.134;2022-09-03T04:28:48;7.18;;;6.57;;
70780;SDS011;59514;48.810;2.134;2022-09-03T04:31:15;7.30;;;6.70;;
70780;SDS011;59514;48.810;2.134;2022-09-03T04:33:42;7.10;;;6.50;;
70780;SDS011;59514;48.810;2.134;2022-09-03T04:36:11;7.38;;;6.78;;
70780;SDS011;59514;48.810;2.134;2022-09-03T04:38:40;6.38;;;5.88;;
70780;SDS011;59514;48.810;2.134;2022-09-03T04:41:07;7.22;;;6.63;;
70780;SDS011;59514;48.810;2.134;2022-09-03T04:43:34;7.15;;;6.45;;
70780;SDS011;59514;48.810;2.134;2022-09-03T04:46:01;7.28;;;6.68;;
70780;SDS011;59514;48.810;2.134;2022-09-03T04:48:28;7.13;;;6.55;;
70780;SDS011;59514;48.810;2.134;2022-09-03T04:51:00;8.05;;;7.10;;
70780;SDS011;59514;48.810;2.134;2022-09-03T04:53:30;7.43;;;6.80;;
70780;SDS011;59514;48.810;2.134;2022-09-03T04:55:56;7.80;;;7.05;;
70780;SDS011;59514;48.810;2.134;2022-09-03T04:58:22;7.60;;;6.90;;
70780;SDS011;59514;48.810;2.134;2022-09-03T05:00:47;7.63;;;6.93;;
70780;SDS011;59514;48.810;2.134;2022-09-03T05:03:12;7.63;;;6.93;;
70780;SDS011;59514;48.810;2.134;2022-09-03T05:05:38;7.68;;;7.03;;
70780;SDS011;59514;48.810;2.134;2022-09-03T05:08:03;7.70;;;7.00;;
70780;SDS011;59514;48.810;2.134;2022-09-03T05:10:29;7.70;;;7.00;;
70780;SDS011;59514;48.810;2.134;2022-09-03T05:13:02;8.18;;;7.47;;
70780;SDS011;59514;48.810;2.134;2022-09-03T05:15:29;7.85;;;7.25;;
70780;SDS011;59514;48.810;2.134;2022-09-03T05:17:57;8.07;;;7.47;;
70780;SDS011;59514;48.810;2.134;2022-09-03T05:20:23;8.10;;;7.40;;
70780;SDS011;59514;48.810;2.134;2022-09-03T05:22:49;9.05;;;7.75;;
70780;SDS011;59514;48.810;2.134;2022-09-03T05:25:15;8.20;;;7.53;;
70780;SDS011;59514;48.810;2.134;2022-09-03T05:27:40;8.07;;;7.38;;
70780;SDS011;59514;48.810;2.134;2022-09-03T05:30:06;8.70;;;7.80;;
70780;SDS011;59514;48.810;2.134;2022-09-03T05:32:32;7.93;;;7.32;;
70780;SDS011;59514;48.810;2.134;2022-09-03T05:34:58;9.02;;;8.23;;
70780;SDS011;59514;48.810;2.134;2022-09-03T05:37:23;8.90;;;8.18;;
70780;SDS011;59514;48.810;2.134;2022-09-03T05:39:49;9.10;;;8.40;;
70780;SDS011;59514;48.810;2.134;2022-09-03T05:42:14;8.98;;;8.18;;
70780;SDS011;59514;48.810;2.134;2022-09-03T05:44:39;9.13;;;8.32;;
70780;SDS011;59514;48.810;2.134;2022-09-03T05:47:05;9.55;;;8.65;;
70780;SDS011;59514;48.810;2.134;2022-09-03T05:49:31;8.88;;;8.07;;
70780;SDS011;59514;48.810;2.134;2022-09-03T05:51:56;10.13;;;8.60;;
70780;SDS011;59514;48.810;2.134;2022-09-03T05:54:21;9.43;;;8.70;;
70780;SDS011;59514;48.810;2.134;2022-09-03T05:56:47;9.55;;;8.65;;
70780;SDS011;59514;48.810;2.134;2022-09-03T05:59:12;9.50;;;8.60;;
70780;SDS011;59514;48.810;2.134;2022-09-03T06:01:39;10.40;;;9.43;;
70780;SDS011;59514;48.810;2.134;2022-09-03T06:04:10;9.93;;;8.93;;
70780;SDS011;59514;48.810;2.134;2022-09-03T06:06:37;10.52;;;9.68;;
70780;SDS011;59514;48.810;2.134;2022-09-03T06:09:11;9.80;;;8.95;;
70780;SDS011;59514;48.810;2.134;2022-09-03T06:11:39;10.43;;;9.43;;
70780;SDS011;59514;48.810;2.134;2022-09-03T06:14:05;10.23;;;9.32;;
70780;SDS011;59514;48.810;2.134;2022-09-03T06:16:33;11.02;;;9.93;;
70780;SDS011;59514;48.810;2.134;2022-09-03T06:19:01;10.60;;;8.98;;
70780;SDS011;59514;48.810;2.134;2022-09-03T06:21:30;10.02;;;9.07;;
70780;SDS011;59514;48.810;2.134;2022-09-03T06:23:55;10.32;;;9.35;;
70780;SDS011;59514;48.810;2.134;2022-09-03T06:26:22;10.27;;;9.30;;
70780;SDS011;59514;48.810;2.134;2022-09-03T06:28:49;9.95;;;8.93;;
70780;SDS011;59514;48.810;2.134;2022-09-03T06:31:15;11.10;;;10.20;;
70780;SDS011;59514;48.810;2.134;2022-09-03T06:33:43;9.18;;;8.38;;
70780;SDS011;59514;48.810;2.134;2022-09-03T06:36:10;9.68;;;8.73;;
70780;SDS011;59514;48.810;2.134;2022-09-03T06:38:37;10.40;;;9.30;;
70780;SDS011;59514;48.810;2.134;2022-09-03T06:41:07;10.65;;;9.23;;
70780;SDS011;59514;48.810;2.134;2022-09-03T06:46:10;8.85;;;8.13;;
70780;SDS011;59514;48.810;2.134;2022-09-03T06:48:40;9.00;;;8.27;;
70780;SDS011;59514;48.810;2.134;2022-09-03T06:51:08;9.50;;;8.70;;
70780;SDS011;59514;48.810;2.134;2022-09-03T06:53:39;9.40;;;8.50;;
70780;SDS011;59514;48.810;2.134;2022-09-03T06:56:06;9.30;;;8.40;;
70780;SDS011;59514;48.810;2.134;2022-09-03T06:58:35;9.13;;;8.32;;
70780;SDS011;59514;48.810;2.134;2022-09-03T07:01:06;8.90;;;8.10;;
70780;SDS011;59514;48.810;2.134;2022-09-03T07:03:36;7.90;;;7.25;;
70780;SDS011;59514;48.810;2.134;2022-09-03T07:06:06;8.73;;;7.95;;
70780;SDS011;59514;48.810;2.134;2022-09-03T07:08:37;8.50;;;7.80;;
70780;SDS011;59514;48.810;2.134;2022-09-03T07:11:03;8.15;;;7.28;;
70780;SDS011;59514;48.810;2.134;2022-09-03T07:13:46;8.27;;;7.47;;
70780;SDS011;59514;48.810;2.134;2022-09-03T07:16:17;8.52;;;7.82;;
70780;SDS011;59514;48.810;2.134;2022-09-03T07:19:05;7.50;;;6.82;;
70780;SDS011;59514;48.810;2.134;2022-09-03T07:21:32;7.32;;;6.68;;
70780;SDS011;59514;48.810;2.134;2022-09-03T07:24:00;7.28;;;6.68;;
70780;SDS011;59514;48.810;2.134;2022-09-03T07:26:30;8.18;;;6.70;;
70780;SDS011;59514;48.810;2.134;2022-09-03T07:28:57;6.57;;;6.07;;
70780;SDS011;59514;48.810;2.134;2022-09-03T07:34:03;6.65;;;6.00;;
70780;SDS011;59514;48.810;2.134;2022-09-03T07:36:30;5.68;;;5.28;;
70780;SDS011;59514;48.810;2.134;2022-09-03T07:39:00;7.22;;;5.50;;
70780;SDS011;59514;48.810;2.134;2022-09-03T07:41:25;6.38;;;4.82;;
70780;SDS011;59514;48.810;2.134;2022-09-03T07:43:51;6.22;;;5.65;;
70780;SDS011;59514;48.810;2.134;2022-09-03T07:46:18;5.40;;;4.90;;
70780;SDS011;59514;48.810;2.134;2022-09-03T07:48:52;4.90;;;4.35;;
70780;SDS011;59514;48.810;2.134;2022-09-03T07:51:19;5.30;;;4.68;;
70780;SDS011;59514;48.810;2.134;2022-09-03T07:53:47;5.28;;;4.38;;
70780;SDS011;59514;48.810;2.134;2022-09-03T07:56:13;6.40;;;4.63;;
70780;SDS011;59514;48.810;2.134;2022-09-03T07:58:40;4.53;;;4.13;;
70780;SDS011;59514;48.810;2.134;2022-09-03T08:01:24;4.55;;;4.15;;
70780;SDS011;59514;48.810;2.134;2022-09-03T08:03:52;4.57;;;4.18;;
70780;SDS011;59514;48.810;2.134;2022-09-03T08:06:19;4.53;;;4.13;;
70780;SDS011;59514;48.810;2.134;2022-09-03T08:08:46;4.85;;;4.45;;
70780;SDS011;59514;48.810;2.134;2022-09-03T08:11:21;4.95;;;4.55;;
70780;SDS011;59514;48.810;2.134;2022-09-03T08:13:53;4.78;;;4.28;;
70780;SDS011;59514;48.810;2.134;2022-09-03T08:16:31;4.43;;;4.03;;
70780;SDS011;59514;48.810;2.134;2022-09-03T08:21:24;5.27;;;3.93;;
70780;SDS011;59514;48.810;2.134;2022-09-03T08:23:51;4.28;;;3.85;;
70780;SDS011;59514;48.810;2.134;2022-09-03T08:26:19;4.88;;;4.03;;
70780;SDS011;59514;48.810;2.134;2022-09-03T08:28:45;3.85;;;3.55;;
70780;SDS011;59514;48.810;2.134;2022-09-03T08:33:41;3.88;;;3.42;;
70780;SDS011;59514;48.810;2.134;2022-09-03T08:36:26;4.45;;;3.50;;
70780;SDS011;59514;48.810;2.134;2022-09-03T08:38:57;3.58;;;2.88;;
70780;SDS011;59514;48.810;2.134;2022-09-03T08:47:46;3.97;;;3.00;;
70780;SDS011;59514;48.810;2.134;2022-09-03T08:52:33;5.30;;;3.08;;
70780;SDS011;59514;48.810;2.134;2022-09-03T08:55:25;3.13;;;2.83;;
70780;SDS011;59514;48.810;2.134;2022-09-03T08:57:55;3.13;;;2.70;;
70780;SDS011;59514;48.810;2.134;2022-09-03T09:00:24;2.50;;;2.28;;
70780;SDS011;59514;48.810;2.134;2022-09-03T09:05:47;4.68;;;2.80;;
70780;SDS011;59514;48.810;2.134;2022-09-03T09:08:24;3.42;;;2.55;;
70780;SDS011;59514;48.810;2.134;2022-09-03T09:13:55;4.20;;;2.58;;
70780;SDS011;59514;48.810;2.134;2022-09-03T09:22:06;6.20;;;2.72;;
70780;SDS011;59514;48.810;2.134;2022-09-03T09:24:26;3.50;;;2.65;;
70780;SDS011;59514;48.810;2.134;2022-09-03T09:27:01;6.10;;;3.70;;
70780;SDS011;59514;48.810;2.134;2022-09-03T09:29:34;3.65;;;2.92;;
70780;SDS011;59514;48.810;2.134;2022-09-03T09:34:32;4.13;;;3.10;;
70780;SDS011;59514;48.810;2.134;2022-09-03T09:37:00;3.95;;;3.13;;
70780;SDS011;59514;48.810;2.134;2022-09-03T09:39:28;5.15;;;3.28;;
70780;SDS011;59514;48.810;2.134;2022-09-03T09:42:00;5.03;;;3.33;;
70780;SDS011;59514;48.810;2.134;2022-09-03T09:44:29;3.15;;;2.83;;
70780;SDS011;59514;48.810;2.134;2022-09-03T09:47:09;3.53;;;3.13;;
70780;SDS011;59514;48.810;2.134;2022-09-03T09:52:17;4.85;;;3.67;;
70780;SDS011;59514;48.810;2.134;2022-09-03T09:54:43;4.78;;;3.38;;
70780;SDS011;59514;48.810;2.134;2022-09-03T09:57:17;3.67;;;3.13;;
70780;SDS011;59514;48.810;2.134;2022-09-03T09:59:46;3.45;;;3.15;;
70780;SDS011;59514;48.810;2.134;2022-09-03T10:04:44;4.45;;;3.22;;
70780;SDS011;59514;48.810;2.134;2022-09-03T10:07:19;5.50;;;3.58;;
70780;SDS011;59514;48.810;2.134;2022-09-03T10:12:47;5.10;;;3.35;;
70780;SDS011;59514;48.810;2.134;2022-09-03T10:15:18;4.28;;;3.15;;
70780;SDS011;59514;48.810;2.134;2022-09-03T10:18:20;4.88;;;3.45;;
70780;SDS011;59514;48.810;2.134;2022-09-03T10:20:59;4.13;;;3.60;;
70780;SDS011;59514;48.810;2.134;2022-09-03T10:26:15;5.20;;;3.83;;
70780;SDS011;59514;48.810;2.134;2022-09-03T10:28:43;5.72;;;4.18;;
70780;SDS011;59514;48.810;2.134;2022-09-03T10:33:55;3.60;;;3.30;;
70780;SDS011;59514;48.810;2.134;2022-09-03T10:39:03;3.65;;;3.38;;
70780;SDS011;59514;48.810;2.134;2022-09-03T10:50:15;3.63;;;3.17;;
70780;SDS011;59514;48.810;2.134;2022-09-03T10:55:30;4.03;;;3.33;;
70780;SDS011;59514;48.810;2.134;2022-09-03T11:00:56;4.68;;;2.90;;
70780;SDS011;59514;48.810;2.134;2022-09-03T11:11:34;2.50;;;2.30;;
70780;SDS011;59514;48.810;2.134;2022-09-03T11:14:07;4.40;;;2.85;;
70780;SDS011;59514;48.810;2.134;2022-09-03T11:16:35;2.92;;;2.50;;
70780;SDS011;59514;48.810;2.134;2022-09-03T11:19:06;2.90;;;2.58;;
70780;SDS011;59514;48.810;2.134;2022-09-03T11:21:35;2.97;;;2.30;;
70780;SDS011;59514;48.810;2.134;2022-09-03T11:24:04;2.30;;;2.10;;
70780;SDS011;59514;48.810;2.134;2022-09-03T11:26:37;2.38;;;2.03;;
70780;SDS011;59514;48.810;2.134;2022-09-03T11:29:19;4.35;;;1.95;;
70780;SDS011;59514;48.810;2.134;2022-09-03T11:32:02;2.50;;;2.08;;
70780;SDS011;59514;48.810;2.134;2022-09-03T11:34:43;2.80;;;2.00;;
70780;SDS011;59514;48.810;2.134;2022-09-03T11:39:56;2.10;;;1.75;;
70780;SDS011;59514;48.810;2.134;2022-09-03T11:42:29;2.38;;;1.85;;
70780;SDS011;59514;48.810;2.134;2022-09-03T11:44:58;4.05;;;2.17;;
70780;SDS011;59514;48.810;2.134;2022-09-03T11:47:37;2.45;;;1.92;;
70780;SDS011;59514;48.810;2.134;2022-09-03T11:50:21;3.42;;;2.08;;
70780;SDS011;59514;48.810;2.134;2022-09-03T11:58:34;4.18;;;2.30;;
70780;SDS011;59514;48.810;2.134;2022-09-03T12:01:13;2.72;;;2.28;;
70780;SDS011;59514;48.810;2.134;2022-09-03T12:12:31;1.80;;;1.70;;
70780;SDS011;59514;48.810;2.134;2022-09-03T12:17:53;1.58;;;1.48;;
70780;SDS011;59514;48.810;2.134;2022-09-03T12:23:32;2.13;;;1.93;;
70780;SDS011;59514;48.810;2.134;2022-09-03T12:26:05;1.10;;;1.00;;
70780;SDS011;59514;48.810;2.134;2022-09-03T12:28:43;1.95;;;0.90;;
70780;SDS011;59514;48.810;2.134;2022-09-03T12:33:47;1.63;;;1.33;;
70780;SDS011;59514;48.810;2.134;2022-09-03T12:39:12;1.75;;;1.20;;
70780;SDS011;59514;48.810;2.134;2022-09-03T12:41:50;2.35;;;1.17;;
70780;SDS011;59514;48.810;2.134;2022-09-03T12:44:27;6.43;;;3.65;;
70780;SDS011;59514;48.810;2.134;2022-09-03T12:49:35;1.17;;;0.80;;
70780;SDS011;59514;48.810;2.134;2022-09-03T12:54:59;4.15;;;2.65;;
70780;SDS011;59514;48.810;2.134;2022-09-03T12:57:29;3.78;;;2.20;;
70780;SDS011;59514;48.810;2.134;2022-09-03T13:00:03;2.72;;;1.98;;
70780;SDS011;59514;48.810;2.134;2022-09-03T13:02:35;1.60;;;1.02;;
70780;SDS011;59514;48.810;2.134;2022-09-03T13:05:26;0.93;;;0.50;;
70780;SDS011;59514;48.810;2.134;2022-09-03T13:07:57;1.42;;;0.75;;
70780;SDS011;59514;48.810;2.134;2022-09-03T13:10:29;2.53;;;0.82;;
70780;SDS011;59514;48.810;2.134;2022-09-03T13:13:01;1.45;;;1.20;;
70780;SDS011;59514;48.810;2.134;2022-09-03T13:15:31;8.13;;;2.85;;
70780;SDS011;59514;48.810;2.134;2022-09-03T13:18:01;1.42;;;1.10;;
70780;SDS011;59514;48.810;2.134;2022-09-03T13:31:48;1.63;;;0.88;;
70780;SDS011;59514;48.810;2.134;2022-09-03T13:34:34;1.38;;;0.75;;
70780;SDS011;59514;48.810;2.134;2022-09-03T13:39:47;0.73;;;0.60;;
70780;SDS011;59514;48.810;2.134;2022-09-03T13:45:08;0.63;;;0.63;;
70780;SDS011;59514;48.810;2.134;2022-09-03T13:47:42;1.38;;;0.60;;
70780;SDS011;59514;48.810;2.134;2022-09-03T13:50:36;0.77;;;0.52;;
70780;SDS011;59514;48.810;2.134;2022-09-03T13:55:49;1.45;;;1.08;;
70780;SDS011;59514;48.810;2.134;2022-09-03T14:01:40;0.68;;;0.57;;
70780;SDS011;59514;48.810;2.134;2022-09-03T14:03:57;1.35;;;0.80;;
70780;SDS011;59514;48.810;2.134;2022-09-03T14:06:36;1.65;;;0.80;;
70780;SDS011;59514;48.810;2.134;2022-09-03T14:09:11;1.00;;;0.90;;
70780;SDS011;59514;48.810;2.134;2022-09-03T14:14:33;1.43;;;0.90;;
70780;SDS011;59514;48.810;2.134;2022-09-03T14:17:05;0.85;;;0.85;;
70780;SDS011;59514;48.810;2.134;2022-09-03T14:24:59;1.02;;;0.90;;
70780;SDS011;59514;48.810;2.134;2022-09-03T14:27:30;0.77;;;0.77;;
70780;SDS011;59514;48.810;2.134;2022-09-03T14:30:42;1.90;;;0.68;;
70780;SDS011;59514;48.810;2.134;2022-09-03T14:33:01;0.93;;;0.77;;
70780;SDS011;59514;48.810;2.134;2022-09-03T14:38:29;1.48;;;0.85;;
70780;SDS011;59514;48.810;2.134;2022-09-03T14:41:03;1.42;;;0.85;;
70780;SDS011;59514;48.810;2.134;2022-09-03T15:00:20;1.77;;;0.75;;
70780;SDS011;59514;48.810;2.134;2022-09-03T15:06:01;1.80;;;1.20;;
70780;SDS011;59514;48.810;2.134;2022-09-03T15:11:19;1.70;;;1.60;;
70780;SDS011;59514;48.810;2.134;2022-09-03T15:14:08;1.50;;;1.40;;
70780;SDS011;59514;48.810;2.134;2022-09-03T15:16:53;3.10;;;1.70;;
70780;SDS011;59514;48.810;2.134;2022-09-03T15:22:11;2.22;;;1.60;;
70780;SDS011;59514;48.810;2.134;2022-09-03T15:29:47;1.92;;;1.73;;
70780;SDS011;59514;48.810;2.134;2022-09-03T15:35:07;2.90;;;1.88;;
70780;SDS011;59514;48.810;2.134;2022-09-03T15:40:30;3.08;;;1.92;;
70780;SDS011;59514;48.810;2.134;2022-09-03T15:45:54;2.95;;;1.90;;
70780;SDS011;59514;48.810;2.134;2022-09-03T15:48:29;3.08;;;2.00;;
70780;SDS011;59514;48.810;2.134;2022-09-03T15:53:51;3.22;;;2.03;;
70780;SDS011;59514;48.810;2.134;2022-09-03T15:56:30;2.38;;;1.50;;
70780;SDS011;59514;48.810;2.134;2022-09-03T15:59:06;2.75;;;2.03;;
70780;SDS011;59514;48.810;2.134;2022-09-03T16:01:43;2.65;;;2.13;;
70780;SDS011;59514;48.810;2.134;2022-09-03T16:06:52;1.80;;;1.70;;
70780;SDS011;59514;48.810;2.134;2022-09-03T16:12:05;1.45;;;1.33;;
70780;SDS011;59514;48.810;2.134;2022-09-03T16:14:55;2.75;;;1.95;;
70780;SDS011;59514;48.810;2.134;2022-09-03T16:17:33;1.95;;;1.70;;
70780;SDS011;59514;48.810;2.134;2022-09-03T16:22:59;2.30;;;1.58;;
70780;SDS011;59514;48.810;2.134;2022-09-03T16:25:33;2.40;;;1.70;;
70780;SDS011;59514;48.810;2.134;2022-09-03T16:28:12;1.77;;;1.67;;
70780;SDS011;59514;48.810;2.134;2022-09-03T16:30:51;2.45;;;2.10;;
70780;SDS011;59514;48.810;2.134;2022-09-03T16:39:06;1.95;;;1.83;;
70780;SDS011;59514;48.810;2.134;2022-09-03T16:41:40;2.50;;;1.65;;
70780;SDS011;59514;48.810;2.134;2022-09-03T16:44:22;2.85;;;1.85;;
70780;SDS011;59514;48.810;2.134;2022-09-03T16:52:17;3.17;;;1.98;;
70780;SDS011;59514;48.810;2.134;2022-09-03T16:55:00;2.33;;;2.13;;
70780;SDS011;59514;48.810;2.134;2022-09-03T16:57:44;2.20;;;2.10;;
70780;SDS011;59514;48.810;2.134;2022-09-03T17:00:21;2.50;;;2.30;;
70780;SDS011;59514;48.810;2.134;2022-09-03T17:03:07;2.05;;;1.90;;
70780;SDS011;59514;48.810;2.134;2022-09-03T17:17:14;3.22;;;2.25;;
70780;SDS011;59514;48.810;2.134;2022-09-03T17:25:53;3.67;;;2.08;;
70780;SDS011;59514;48.810;2.134;2022-09-03T17:28:53;2.50;;;2.30;;
70780;SDS011;59514;48.810;2.134;2022-09-03T17:37:06;2.40;;;2.20;;
70780;SDS011;59514;48.810;2.134;2022-09-03T17:40:02;3.20;;;2.47;;
70780;SDS011;59514;48.810;2.134;2022-09-03T17:53:59;3.17;;;2.58;;
70780;SDS011;59514;48.810;2.134;2022-09-03T17:56:32;3.08;;;2.75;;
70780;SDS011;59514;48.810;2.134;2022-09-03T18:01:46;3.28;;;3.03;;
70780;SDS011;59514;48.810;2.134;2022-09-03T18:04:33;4.50;;;4.10;;
70780;SDS011;59514;48.810;2.134;2022-09-03T18:07:22;3.47;;;3.17;;
70780;SDS011;59514;48.810;2.134;2022-09-03T18:17:56;5.55;;;4.30;;
70780;SDS011;59514;48.810;2.134;2022-09-03T18:20:24;5.82;;;4.03;;
70780;SDS011;59514;48.810;2.134;2022-09-03T18:23:32;5.05;;;3.30;;
70780;SDS011;59514;48.810;2.134;2022-09-03T18:29:13;5.50;;;3.75;;
70780;SDS011;59514;48.810;2.134;2022-09-03T18:32:02;6.00;;;5.45;;
70780;SDS011;59514;48.810;2.134;2022-09-03T18:34:47;7.18;;;4.90;;
70780;SDS011;59514;48.810;2.134;2022-09-03T18:37:31;7.20;;;6.47;;
70780;SDS011;59514;48.810;2.134;2022-09-03T18:40:21;5.72;;;4.65;;
70780;SDS011;59514;48.810;2.134;2022-09-03T18:46:32;7.90;;;6.68;;
70780;SDS011;59514;48.810;2.134;2022-09-03T18:49:34;5.85;;;5.28;;
70780;SDS011;59514;48.810;2.134;2022-09-03T18:55:37;4.32;;;3.92;;
70780;SDS011;59514;48.810;2.134;2022-09-03T18:58:35;4.28;;;3.85;;
70780;SDS011;59514;48.810;2.134;2022-09-03T19:01:35;4.20;;;3.22;;
70780;SDS011;59514;48.810;2.134;2022-09-03T19:10:43;3.78;;;3.35;;
70780;SDS011;59514;48.810;2.134;2022-09-03T19:13:34;4.03;;;3.72;;
70780;SDS011;59514;48.810;2.134;2022-09-03T19:22:44;5.20;;;4.80;;
70780;SDS011;59514;48.810;2.134;2022-09-03T19:25:29;6.18;;;5.50;;
70780;SDS011;59514;48.810;2.134;2022-09-03T19:40:51;6.47;;;5.53;;
70780;SDS011;59514;48.810;2.134;2022-09-03T19:44:02;5.82;;;5.30;;
70780;SDS011;59514;48.810;2.134;2022-09-03T19:47:01;6.10;;;5.38;;
70780;SDS011;59514;48.810;2.134;2022-09-03T19:52:57;6.15;;;5.55;;
70780;SDS011;59514;48.810;2.134;2022-09-03T19:55:46;5.63;;;5.05;;
70780;SDS011;59514;48.810;2.134;2022-09-03T19:58:35;5.57;;;5.13;;
70780;SDS011;59514;48.810;2.134;2022-09-03T20:01:24;5.57;;;4.95;;
70780;SDS011;59514;48.810;2.134;2022-09-03T20:04:15;6.07;;;5.47;;
70780;SDS011;59514;48.810;2.134;2022-09-03T20:06:59;7.00;;;6.32;;
70780;SDS011;59514;48.810;2.134;2022-09-03T20:09:48;7.38;;;6.68;;
70780;SDS011;59514;48.810;2.134;2022-09-03T20:12:36;6.90;;;6.20;;
70780;SDS011;59514;48.810;2.134;2022-09-03T20:15:05;7.38;;;6.53;;
70780;SDS011;59514;48.810;2.134;2022-09-03T20:17:54;8.25;;;6.90;;
70780;SDS011;59514;48.810;2.134;2022-09-03T20:20:29;7.35;;;6.65;;
70780;SDS011;59514;48.810;2.134;2022-09-03T20:23:18;7.40;;;6.70;;
70780;SDS011;59514;48.810;2.134;2022-09-03T20:26:07;6.68;;;5.97;;
70780;SDS011;59514;48.810;2.134;2022-09-03T20:34:14;6.63;;;5.33;;
70780;SDS011;59514;48.810;2.134;2022-09-03T20:37:10;6.25;;;5.72;;
70780;SDS011;59514;48.810;2.134;2022-09-03T20:39:45;6.10;;;5.60;;
70780;SDS011;59514;48.810;2.134;2022-09-03T20:45:21;6.00;;;5.50;;
70780;SDS011;59514;48.810;2.134;2022-09-03T20:47:55;5.47;;;4.97;;
70780;SDS011;59514;48.810;2.134;2022-09-03T20:50:31;5.75;;;5.22;;
70780;SDS011;59514;48.810;2.134;2022-09-03T20:53:51;6.15;;;5.55;;
70780;SDS011;59514;48.810;2.134;2022-09-03T20:56:04;5.55;;;5.05;;
70780;SDS011;59514;48.810;2.134;2022-09-03T20:58:38;5.85;;;5.30;;
70780;SDS011;59514;48.810;2.134;2022-09-03T21:01:08;5.35;;;4.93;;
70780;SDS011;59514;48.810;2.134;2022-09-03T21:03:46;5.10;;;4.60;;
70780;SDS011;59514;48.810;2.134;2022-09-03T21:14:34;5.35;;;4.85;;
70780;SDS011;59514;48.810;2.134;2022-09-03T21:17:18;5.18;;;4.68;;
70780;SDS011;59514;48.810;2.134;2022-09-03T21:25:25;5.20;;;4.57;;
70780;SDS011;59514;48.810;2.134;2022-09-03T21:28:00;5.68;;;4.93;;
70780;SDS011;59514;48.810;2.134;2022-09-03T21:30:47;5.82;;;5.32;;